LEZGLESU

Guest
Details From LEZG - Zaragoza Ab
To LESU - Seo De Urgel
Flight Number -
Tags Generated
Created
Modified
Stats Distance 116 nm / 215 km
Max Altitude 0 ft / 0 m
Waypoints 2
Social Downloads 3
Likes 0
Share VATSIM

Download

Looking for another format? Having issues loading an existing format? Contact us
Advertisement - Login to hide

Notes

Generated

Route

LEZG LESU

ID Type Via Altitude Latitude Longitude Leg Dist Tot Dist Heading (true) Name
O LEZG APT - 0 ft / 0 m 41.66906˚ -1.03983˚ - 0 nm - Zaragoza AB
O LESU APT - 0 ft / 0 m 42.33710˚ 1.40709˚ 116 nm 116 nm 69° / 71° Seo de Urgel

Altitude Profile

Advertisement - Login to hide

LEZG

Details ICAO LEZG (ZAZ)
Name Zaragoza AB
Region Spain
Timezone Europe/Madrid (UTC+2.0)
Stats Elevation 862 ft / 263 m (AMSL)
Location 41.667030° -1.043559°
Runways 2
Magnetic Variation 0.040° E

METAR

LEZG 201600Z 12007KT 080V170 9999 FEW050 FEW060CB 25/11 Q1011

Decode

TAF

TAF LEZG 201100Z 2012/2112 VRB04KT 9999 SCT030 TX26/2013Z TN15/2106Z PROB40 TEMPO 2012/2024 FEW030CB BKN045 PROB40 TEMPO 2016/2022 VRB15G25KT 4000 TSRA FEW030CB BKN045 PROB30 TEMPO 2100/2106 4000 BR BKN013

Decode

Departure Runways

ID Width Length Bearing (true) Bearing (mag) Surface Threshold Offset Overrun Length
12L 148 ft / 45 m 9,934 ft / 3,028 m 120.12° 120.08° Asphalt 0 ft / 0 m 984 ft / 300 m
12R 148 ft / 45 m 12,181 ft / 3,713 m 120.10° 120.06° Asphalt 0 ft / 0 m 984 ft / 300 m
30L 148 ft / 45 m 12,181 ft / 3,713 m 300.12° 300.08° Asphalt 0 ft / 0 m 984 ft / 300 m
30R 148 ft / 45 m 9,934 ft / 3,028 m 300.14° 300.10° Asphalt 0 ft / 0 m 607 ft / 185 m

LESU

Details ICAO LESU (LEU)
Name Seo de Urgel
Region Spain
Timezone Europe/Madrid (UTC+2.0)
Stats Elevation 2,625 ft / 800 m (AMSL)
Location 42.341155° 1.410651°
Runways 1
Magnetic Variation 0.675° E

METAR

LESU 201600Z 05008KT 9999 VCSH FEW039 SCT054TCU BKN090 15/10 Q1015

Decode

TAF

TAF LESU 201400Z 2015/2115 VRB04KT 9999 SCT050 TX22/2114Z TN08/2106Z TEMPO 2015/2017 20010KT PROB40 TEMPO 2015/2022 4000 TSRA BKN030 SCT050CB PROB40 TEMPO 2022/2106 2000 BR BKN008 TEMPO 2111/2115 22010KT

Decode

Destination Runways

ID Width Length Bearing (true) Bearing (mag) Surface Threshold Offset Overrun Length
03 98 ft / 30 m 4,396 ft / 1,340 m 30.50° 29.82° Asphalt 0 ft / 0 m 98 ft / 30 m
21 98 ft / 30 m 4,396 ft / 1,340 m 210.50° 209.82° Asphalt 0 ft / 0 m 102 ft / 31 m